sensor_id;sensor_type;location;lat;lon;timestamp;temperature;humidity
71994;DHT22;59861;50.268;8.648;2022-11-06T00:00:33;19.50;57.80
71994;DHT22;59861;50.268;8.648;2022-11-06T00:03:00;19.50;57.80
71994;DHT22;59861;50.268;8.648;2022-11-06T00:05:27;19.50;57.90
71994;DHT22;59861;50.268;8.648;2022-11-06T00:08:12;19.50;57.90
71994;DHT22;59861;50.268;8.648;2022-11-06T00:10:39;19.50;57.90
71994;DHT22;59861;50.268;8.648;2022-11-06T00:13:06;19.50;58.00
71994;DHT22;59861;50.268;8.648;2022-11-06T00:15:33;19.40;57.90
71994;DHT22;59861;50.268;8.648;2022-11-06T00:18:00;19.40;57.90
71994;DHT22;59861;50.268;8.648;2022-11-06T00:20:26;19.40;58.00
71994;DHT22;59861;50.268;8.648;2022-11-06T00:22:53;19.40;57.90
71994;DHT22;59861;50.268;8.648;2022-11-06T00:25:20;19.40;58.00
71994;DHT22;59861;50.268;8.648;2022-11-06T00:27:47;19.40;58.00
71994;DHT22;59861;50.268;8.648;2022-11-06T00:30:14;19.30;58.00
71994;DHT22;59861;50.268;8.648;2022-11-06T00:32:40;19.30;58.00
71994;DHT22;59861;50.268;8.648;2022-11-06T00:35:07;19.30;58.00
71994;DHT22;59861;50.268;8.648;2022-11-06T00:37:34;19.30;58.10
71994;DHT22;59861;50.268;8.648;2022-11-06T00:40:01;19.30;58.00
71994;DHT22;59861;50.268;8.648;2022-11-06T00:42:28;19.30;58.10
71994;DHT22;59861;50.268;8.648;2022-11-06T00:44:55;19.30;58.10
71994;DHT22;59861;50.268;8.648;2022-11-06T00:47:22;19.30;57.90
71994;DHT22;59861;50.268;8.648;2022-11-06T00:49:49;19.20;58.10
71994;DHT22;59861;50.268;8.648;2022-11-06T00:52:16;19.30;58.70
71994;DHT22;59861;50.268;8.648;2022-11-06T00:54:42;19.20;58.20
71994;DHT22;59861;50.268;8.648;2022-11-06T00:57:09;19.20;57.70
71994;DHT22;59861;50.268;8.648;2022-11-06T00:59:36;19.20;58.20
71994;DHT22;59861;50.268;8.648;2022-11-06T01:02:03;19.20;58.10
71994;DHT22;59861;50.268;8.648;2022-11-06T01:04:30;19.20;58.20
71994;DHT22;59861;50.268;8.648;2022-11-06T01:06:56;19.10;58.20
71994;DHT22;59861;50.268;8.648;2022-11-06T01:09:25;19.10;58.20
71994;DHT22;59861;50.268;8.648;2022-11-06T01:11:53;19.10;58.20
71994;DHT22;59861;50.268;8.648;2022-11-06T01:14:20;19.10;58.30
71994;DHT22;59861;50.268;8.648;2022-11-06T01:16:48;19.10;58.30
71994;DHT22;59861;50.268;8.648;2022-11-06T01:19:16;19.10;58.30
71994;DHT22;59861;50.268;8.648;2022-11-06T01:21:44;19.10;58.50
71994;DHT22;59861;50.268;8.648;2022-11-06T01:24:12;19.10;58.40
71994;DHT22;59861;50.268;8.648;2022-11-06T01:26:40;19.10;58.40
71994;DHT22;59861;50.268;8.648;2022-11-06T01:29:07;19.00;58.30
71994;DHT22;59861;50.268;8.648;2022-11-06T01:31:34;19.00;58.40
71994;DHT22;59861;50.268;8.648;2022-11-06T01:34:01;19.00;58.70
71994;DHT22;59861;50.268;8.648;2022-11-06T01:36:29;19.00;58.40
71994;DHT22;59861;50.268;8.648;2022-11-06T01:38:57;19.00;58.40
71994;DHT22;59861;50.268;8.648;2022-11-06T01:41:25;19.00;58.40
71994;DHT22;59861;50.268;8.648;2022-11-06T01:43:53;18.90;58.30
71994;DHT22;59861;50.268;8.648;2022-11-06T01:46:22;18.90;58.40
71994;DHT22;59861;50.268;8.648;2022-11-06T01:48:51;18.90;58.30
71994;DHT22;59861;50.268;8.648;2022-11-06T01:51:18;18.90;58.90
71994;DHT22;59861;50.268;8.648;2022-11-06T01:53:45;18.90;58.50
71994;DHT22;59861;50.268;8.648;2022-11-06T01:56:12;18.90;58.50
71994;DHT22;59861;50.268;8.648;2022-11-06T01:58:40;18.90;58.50
71994;DHT22;59861;50.268;8.648;2022-11-06T02:01:08;18.90;58.50
71994;DHT22;59861;50.268;8.648;2022-11-06T02:03:36;18.90;58.50
71994;DHT22;59861;50.268;8.648;2022-11-06T02:06:03;18.90;58.60
71994;DHT22;59861;50.268;8.648;2022-11-06T02:08:30;18.80;58.40
71994;DHT22;59861;50.268;8.648;2022-11-06T02:10:57;18.80;58.50
71994;DHT22;59861;50.268;8.648;2022-11-06T02:13:26;18.80;58.50
71994;DHT22;59861;50.268;8.648;2022-11-06T02:15:56;18.80;58.40
71994;DHT22;59861;50.268;8.648;2022-11-06T02:18:26;18.80;58.50
71994;DHT22;59861;50.268;8.648;2022-11-06T02:23:35;18.80;58.50
71994;DHT22;59861;50.268;8.648;2022-11-06T02:28:49;18.70;58.40
71994;DHT22;59861;50.268;8.648;2022-11-06T02:31:16;18.70;58.40
71994;DHT22;59861;50.268;8.648;2022-11-06T02:33:46;18.70;58.40
71994;DHT22;59861;50.268;8.648;2022-11-06T02:36:13;18.70;58.60
71994;DHT22;59861;50.268;8.648;2022-11-06T02:38:41;18.70;58.60
71994;DHT22;59861;50.268;8.648;2022-11-06T02:41:09;18.70;58.50
71994;DHT22;59861;50.268;8.648;2022-11-06T02:43:41;18.70;58.60
71994;DHT22;59861;50.268;8.648;2022-11-06T02:46:09;18.70;58.40
71994;DHT22;59861;50.268;8.648;2022-11-06T02:48:37;18.70;58.70
71994;DHT22;59861;50.268;8.648;2022-11-06T02:51:04;18.70;58.60
71994;DHT22;59861;50.268;8.648;2022-11-06T02:53:33;18.70;58.60
71994;DHT22;59861;50.268;8.648;2022-11-06T02:56:04;18.70;58.70
71994;DHT22;59861;50.268;8.648;2022-11-06T02:58:40;18.60;58.70
71994;DHT22;59861;50.268;8.648;2022-11-06T03:01:12;18.70;58.80
71994;DHT22;59861;50.268;8.648;2022-11-06T03:03:36;18.70;58.80
71994;DHT22;59861;50.268;8.648;2022-11-06T03:06:06;18.70;58.80
71994;DHT22;59861;50.268;8.648;2022-11-06T03:08:34;18.70;58.80
71994;DHT22;59861;50.268;8.648;2022-11-06T03:11:05;18.70;58.70
71994;DHT22;59861;50.268;8.648;2022-11-06T03:13:43;18.70;58.80
71994;DHT22;59861;50.268;8.648;2022-11-06T03:16:04;18.70;59.40
71994;DHT22;59861;50.268;8.648;2022-11-06T03:18:34;18.70;58.80
71994;DHT22;59861;50.268;8.648;2022-11-06T03:21:02;18.70;58.80
71994;DHT22;59861;50.268;8.648;2022-11-06T03:28:37;18.70;58.70
71994;DHT22;59861;50.268;8.648;2022-11-06T03:31:04;18.70;58.70
71994;DHT22;59861;50.268;8.648;2022-11-06T03:33:33;18.70;58.70
71994;DHT22;59861;50.268;8.648;2022-11-06T03:36:17;18.70;58.80
71994;DHT22;59861;50.268;8.648;2022-11-06T03:38:55;18.70;58.70
71994;DHT22;59861;50.268;8.648;2022-11-06T03:43:53;18.70;58.70
71994;DHT22;59861;50.268;8.648;2022-11-06T03:46:20;18.70;58.80
71994;DHT22;59861;50.268;8.648;2022-11-06T03:48:54;18.70;58.80
71994;DHT22;59861;50.268;8.648;2022-11-06T03:51:22;18.70;58.70
71994;DHT22;59861;50.268;8.648;2022-11-06T03:53:55;18.70;58.80
71994;DHT22;59861;50.268;8.648;2022-11-06T03:56:21;18.70;58.80
71994;DHT22;59861;50.268;8.648;2022-11-06T03:58:46;18.70;58.60
71994;DHT22;59861;50.268;8.648;2022-11-06T04:01:14;18.60;58.80
71994;DHT22;59861;50.268;8.648;2022-11-06T04:04:01;18.60;59.10
71994;DHT22;59861;50.268;8.648;2022-11-06T04:06:16;18.60;58.70
71994;DHT22;59861;50.268;8.648;2022-11-06T04:08:44;18.60;58.70
71994;DHT22;59861;50.268;8.648;2022-11-06T04:11:30;18.60;58.70
71994;DHT22;59861;50.268;8.648;2022-11-06T04:14:17;18.60;58.70
71994;DHT22;59861;50.268;8.648;2022-11-06T04:16:45;18.60;58.60
71994;DHT22;59861;50.268;8.648;2022-11-06T04:19:18;18.60;58.70
71994;DHT22;59861;50.268;8.648;2022-11-06T04:30:15;18.60;58.70
71994;DHT22;59861;50.268;8.648;2022-11-06T04:32:48;18.60;58.70
71994;DHT22;59861;50.268;8.648;2022-11-06T04:35:15;18.60;58.90
71994;DHT22;59861;50.268;8.648;2022-11-06T04:37:49;18.50;58.80
71994;DHT22;59861;50.268;8.648;2022-11-06T04:40:22;18.50;58.70
71994;DHT22;59861;50.268;8.648;2022-11-06T04:42:57;18.50;58.70
71994;DHT22;59861;50.268;8.648;2022-11-06T04:45:24;18.50;58.70
71994;DHT22;59861;50.268;8.648;2022-11-06T04:47:51;18.50;58.70
71994;DHT22;59861;50.268;8.648;2022-11-06T04:50:19;18.50;58.70
71994;DHT22;59861;50.268;8.648;2022-11-06T04:52:48;18.50;58.80
71994;DHT22;59861;50.268;8.648;2022-11-06T04:55:16;18.50;58.70
71994;DHT22;59861;50.268;8.648;2022-11-06T04:57:43;18.50;58.70
71994;DHT22;59861;50.268;8.648;2022-11-06T05:00:11;18.40;58.70
71994;DHT22;59861;50.268;8.648;2022-11-06T05:02:39;18.40;58.70
71994;DHT22;59861;50.268;8.648;2022-11-06T05:05:06;18.40;58.80
71994;DHT22;59861;50.268;8.648;2022-11-06T05:07:33;18.40;58.80
71994;DHT22;59861;50.268;8.648;2022-11-06T05:10:00;18.50;58.80
71994;DHT22;59861;50.268;8.648;2022-11-06T05:12:27;18.50;58.80
71994;DHT22;59861;50.268;8.648;2022-11-06T05:14:54;18.40;58.80
71994;DHT22;59861;50.268;8.648;2022-11-06T05:17:20;18.40;58.80
71994;DHT22;59861;50.268;8.648;2022-11-06T05:19:47;18.40;58.80
71994;DHT22;59861;50.268;8.648;2022-11-06T05:22:14;18.40;58.80
71994;DHT22;59861;50.268;8.648;2022-11-06T05:24:59;18.40;58.80
71994;DHT22;59861;50.268;8.648;2022-11-06T05:27:26;18.40;58.80
71994;DHT22;59861;50.268;8.648;2022-11-06T05:29:53;18.40;58.80
71994;DHT22;59861;50.268;8.648;2022-11-06T05:32:19;18.40;58.80
71994;DHT22;59861;50.268;8.648;2022-11-06T05:34:47;18.40;58.80
71994;DHT22;59861;50.268;8.648;2022-11-06T05:37:13;18.30;58.80
71994;DHT22;59861;50.268;8.648;2022-11-06T05:39:40;18.30;58.90
71994;DHT22;59861;50.268;8.648;2022-11-06T05:42:07;18.30;58.80
71994;DHT22;59861;50.268;8.648;2022-11-06T05:44:34;18.30;58.80
71994;DHT22;59861;50.268;8.648;2022-11-06T05:47:02;18.30;58.90
71994;DHT22;59861;50.268;8.648;2022-11-06T05:49:29;18.30;58.90
71994;DHT22;59861;50.268;8.648;2022-11-06T05:51:56;18.30;58.90
71994;DHT22;59861;50.268;8.648;2022-11-06T05:54:23;18.30;59.00
71994;DHT22;59861;50.268;8.648;2022-11-06T05:56:49;18.40;58.90
71994;DHT22;59861;50.268;8.648;2022-11-06T05:59:16;18.30;58.90
71994;DHT22;59861;50.268;8.648;2022-11-06T06:01:43;18.40;58.90
71994;DHT22;59861;50.268;8.648;2022-11-06T06:04:10;18.40;59.00
71994;DHT22;59861;50.268;8.648;2022-11-06T06:06:37;18.40;58.90
71994;DHT22;59861;50.268;8.648;2022-11-06T06:09:03;18.40;58.80
71994;DHT22;59861;50.268;8.648;2022-11-06T06:11:30;18.50;58.90
71994;DHT22;59861;50.268;8.648;2022-11-06T06:13:58;18.50;58.80
71994;DHT22;59861;50.268;8.648;2022-11-06T06:16:25;18.50;58.80
71994;DHT22;59861;50.268;8.648;2022-11-06T06:18:52;18.60;58.70
71994;DHT22;59861;50.268;8.648;2022-11-06T06:21:18;18.60;58.70
71994;DHT22;59861;50.268;8.648;2022-11-06T06:23:45;18.60;58.60
71994;DHT22;59861;50.268;8.648;2022-11-06T06:26:12;18.60;58.50
71994;DHT22;59861;50.268;8.648;2022-11-06T06:28:39;18.60;58.60
71994;DHT22;59861;50.268;8.648;2022-11-06T06:31:06;18.60;59.20
71994;DHT22;59861;50.268;8.648;2022-11-06T06:33:34;18.60;58.50
71994;DHT22;59861;50.268;8.648;2022-11-06T06:36:04;18.60;58.50
71994;DHT22;59861;50.268;8.648;2022-11-06T06:38:31;18.60;58.40
71994;DHT22;59861;50.268;8.648;2022-11-06T06:41:01;18.60;58.40
71994;DHT22;59861;50.268;8.648;2022-11-06T06:43:28;18.60;58.50
71994;DHT22;59861;50.268;8.648;2022-11-06T06:45:58;18.60;58.50
71994;DHT22;59861;50.268;8.648;2022-11-06T06:48:25;18.60;58.40
71994;DHT22;59861;50.268;8.648;2022-11-06T06:50:57;18.60;58.40
71994;DHT22;59861;50.268;8.648;2022-11-06T06:53:21;18.60;58.30
71994;DHT22;59861;50.268;8.648;2022-11-06T06:55:47;18.60;58.30
71994;DHT22;59861;50.268;8.648;2022-11-06T06:58:14;18.60;58.40
71994;DHT22;59861;50.268;8.648;2022-11-06T07:00:41;18.50;58.30
71994;DHT22;59861;50.268;8.648;2022-11-06T07:03:08;18.50;58.30
71994;DHT22;59861;50.268;8.648;2022-11-06T07:05:35;18.50;58.30
71994;DHT22;59861;50.268;8.648;2022-11-06T07:08:02;18.50;58.30
71994;DHT22;59861;50.268;8.648;2022-11-06T07:10:29;18.50;58.30
71994;DHT22;59861;50.268;8.648;2022-11-06T07:12:59;18.50;58.30
71994;DHT22;59861;50.268;8.648;2022-11-06T07:15:24;18.50;58.30
71994;DHT22;59861;50.268;8.648;2022-11-06T07:17:51;18.50;58.30
71994;DHT22;59861;50.268;8.648;2022-11-06T07:20:18;18.50;58.30
71994;DHT22;59861;50.268;8.648;2022-11-06T07:22:45;18.50;58.30
71994;DHT22;59861;50.268;8.648;2022-11-06T07:25:11;18.40;58.20
71994;DHT22;59861;50.268;8.648;2022-11-06T07:27:38;18.40;58.20
71994;DHT22;59861;50.268;8.648;2022-11-06T07:30:06;18.40;58.30
71994;DHT22;59861;50.268;8.648;2022-11-06T07:32:33;18.40;58.20
71994;DHT22;59861;50.268;8.648;2022-11-06T07:35:00;18.40;58.30
71994;DHT22;59861;50.268;8.648;2022-11-06T07:37:27;18.40;58.30
71994;DHT22;59861;50.268;8.648;2022-11-06T07:39:53;18.40;58.30
71994;DHT22;59861;50.268;8.648;2022-11-06T07:42:20;18.40;59.10
71994;DHT22;59861;50.268;8.648;2022-11-06T07:44:47;18.40;58.40
71994;DHT22;59861;50.268;8.648;2022-11-06T07:47:14;18.40;58.40
71994;DHT22;59861;50.268;8.648;2022-11-06T07:49:41;18.40;58.40
71994;DHT22;59861;50.268;8.648;2022-11-06T07:52:08;18.40;58.30
71994;DHT22;59861;50.268;8.648;2022-11-06T07:54:34;18.40;58.40
71994;DHT22;59861;50.268;8.648;2022-11-06T07:57:01;18.40;58.40
71994;DHT22;59861;50.268;8.648;2022-11-06T07:59:28;17.90;50.80
71994;DHT22;59861;50.268;8.648;2022-11-06T08:01:55;17.00;49.00
71994;DHT22;59861;50.268;8.648;2022-11-06T08:04:21;16.40;49.80
71994;DHT22;59861;50.268;8.648;2022-11-06T08:06:48;16.10;50.20
71994;DHT22;59861;50.268;8.648;2022-11-06T08:09:15;15.20;50.60
71994;DHT22;59861;50.268;8.648;2022-11-06T08:11:42;14.80;52.70
71994;DHT22;59861;50.268;8.648;2022-11-06T08:14:09;15.30;54.10
71994;DHT22;59861;50.268;8.648;2022-11-06T08:16:36;15.90;54.50
71994;DHT22;59861;50.268;8.648;2022-11-06T08:19:03;16.30;54.00
71994;DHT22;59861;50.268;8.648;2022-11-06T08:21:30;16.70;54.10
71994;DHT22;59861;50.268;8.648;2022-11-06T08:23:57;16.90;53.90
71994;DHT22;59861;50.268;8.648;2022-11-06T08:26:23;17.00;53.40
71994;DHT22;59861;50.268;8.648;2022-11-06T08:28:50;16.20;50.00
71994;DHT22;59861;50.268;8.648;2022-11-06T08:31:17;16.60;53.30
71994;DHT22;59861;50.268;8.648;2022-11-06T08:33:45;17.10;52.70
71994;DHT22;59861;50.268;8.648;2022-11-06T08:36:12;17.60;52.60
71994;DHT22;59861;50.268;8.648;2022-11-06T08:38:39;18.00;51.90
71994;DHT22;59861;50.268;8.648;2022-11-06T08:41:07;18.40;51.80
71994;DHT22;59861;50.268;8.648;2022-11-06T08:43:34;18.90;51.80
71994;DHT22;59861;50.268;8.648;2022-11-06T08:46:02;19.20;51.10
71994;DHT22;59861;50.268;8.648;2022-11-06T08:48:29;19.50;51.30
71994;DHT22;59861;50.268;8.648;2022-11-06T08:50:55;19.60;51.30
71994;DHT22;59861;50.268;8.648;2022-11-06T08:53:22;19.80;51.30
71994;DHT22;59861;50.268;8.648;2022-11-06T08:55:49;19.60;51.50
71994;DHT22;59861;50.268;8.648;2022-11-06T08:58:16;19.50;51.90
71994;DHT22;59861;50.268;8.648;2022-11-06T09:00:43;19.50;52.50
71994;DHT22;59861;50.268;8.648;2022-11-06T09:03:11;19.90;52.20
71994;DHT22;59861;50.268;8.648;2022-11-06T09:05:38;20.20;51.70
71994;DHT22;59861;50.268;8.648;2022-11-06T09:08:06;20.40;51.60
71994;DHT22;59861;50.268;8.648;2022-11-06T09:10:33;20.50;51.60
71994;DHT22;59861;50.268;8.648;2022-11-06T09:13:00;20.60;51.80
71994;DHT22;59861;50.268;8.648;2022-11-06T09:15:27;20.60;51.80
71994;DHT22;59861;50.268;8.648;2022-11-06T09:17:54;20.70;52.00
71994;DHT22;59861;50.268;8.648;2022-11-06T09:20:21;20.80;52.40
71994;DHT22;59861;50.268;8.648;2022-11-06T09:22:49;20.80;52.30
71994;DHT22;59861;50.268;8.648;2022-11-06T09:25:17;20.80;52.10
71994;DHT22;59861;50.268;8.648;2022-11-06T09:27:52;20.50;51.20
71994;DHT22;59861;50.268;8.648;2022-11-06T09:30:16;20.40;51.50
71994;DHT22;59861;50.268;8.648;2022-11-06T09:32:53;20.40;51.70
71994;DHT22;59861;50.268;8.648;2022-11-06T09:35:20;20.40;51.80
71994;DHT22;59861;50.268;8.648;2022-11-06T09:37:48;20.40;51.80
71994;DHT22;59861;50.268;8.648;2022-11-06T09:40:19;20.50;52.20
71994;DHT22;59861;50.268;8.648;2022-11-06T09:42:55;20.60;52.40
71994;DHT22;59861;50.268;8.648;2022-11-06T09:45:21;20.70;52.40
71994;DHT22;59861;50.268;8.648;2022-11-06T09:47:50;20.80;52.30
71994;DHT22;59861;50.268;8.648;2022-11-06T09:50:18;20.90;52.30
71994;DHT22;59861;50.268;8.648;2022-11-06T09:55:27;21.00;52.20
71994;DHT22;59861;50.268;8.648;2022-11-06T09:57:58;21.10;52.30
71994;DHT22;59861;50.268;8.648;2022-11-06T10:00:25;21.10;52.30
71994;DHT22;59861;50.268;8.648;2022-11-06T10:02:53;21.20;52.30
71994;DHT22;59861;50.268;8.648;2022-11-06T10:05:34;21.20;52.30
71994;DHT22;59861;50.268;8.648;2022-11-06T10:08:02;21.20;51.40
71994;DHT22;59861;50.268;8.648;2022-11-06T10:13:29;21.10;51.50
71994;DHT22;59861;50.268;8.648;2022-11-06T10:20:54;21.10;52.30
71994;DHT22;59861;50.268;8.648;2022-11-06T10:28:33;21.10;52.50
71994;DHT22;59861;50.268;8.648;2022-11-06T10:36:38;21.10;52.70
71994;DHT22;59861;50.268;8.648;2022-11-06T10:39:03;21.10;52.90
71994;DHT22;59861;50.268;8.648;2022-11-06T10:41:32;21.10;52.80
71994;DHT22;59861;50.268;8.648;2022-11-06T10:44:01;21.10;52.90
71994;DHT22;59861;50.268;8.648;2022-11-06T10:46:29;21.00;53.00
71994;DHT22;59861;50.268;8.648;2022-11-06T10:48:58;21.00;53.00
71994;DHT22;59861;50.268;8.648;2022-11-06T10:56:33;21.00;53.30
71994;DHT22;59861;50.268;8.648;2022-11-06T10:58:59;20.90;53.30
71994;DHT22;59861;50.268;8.648;2022-11-06T11:01:26;20.90;53.40
71994;DHT22;59861;50.268;8.648;2022-11-06T11:03:53;21.00;53.50
71994;DHT22;59861;50.268;8.648;2022-11-06T11:06:20;21.00;53.60
71994;DHT22;59861;50.268;8.648;2022-11-06T11:08:48;20.90;53.80
71994;DHT22;59861;50.268;8.648;2022-11-06T11:11:19;21.00;53.70
71994;DHT22;59861;50.268;8.648;2022-11-06T11:14:11;20.90;53.60
71994;DHT22;59861;50.268;8.648;2022-11-06T11:16:19;21.00;53.60
71994;DHT22;59861;50.268;8.648;2022-11-06T11:18:47;20.90;53.60
71994;DHT22;59861;50.268;8.648;2022-11-06T11:23:43;20.90;53.80
71994;DHT22;59861;50.268;8.648;2022-11-06T11:26:16;20.90;54.00
71994;DHT22;59861;50.268;8.648;2022-11-06T11:28:42;20.90;54.10
71994;DHT22;59861;50.268;8.648;2022-11-06T11:31:09;20.80;54.20
71994;DHT22;59861;50.268;8.648;2022-11-06T11:33:38;20.80;54.30
71994;DHT22;59861;50.268;8.648;2022-11-06T11:36:06;20.80;54.60
71994;DHT22;59861;50.268;8.648;2022-11-06T11:38:38;20.80;54.60
71994;DHT22;59861;50.268;8.648;2022-11-06T11:41:10;20.80;54.60
71994;DHT22;59861;50.268;8.648;2022-11-06T11:43:36;20.80;54.70
71994;DHT22;59861;50.268;8.648;2022-11-06T11:48:50;20.70;54.90
71994;DHT22;59861;50.268;8.648;2022-11-06T11:51:28;20.70;54.80
71994;DHT22;59861;50.268;8.648;2022-11-06T11:54:00;20.80;55.40
71994;DHT22;59861;50.268;8.648;2022-11-06T11:56:23;20.70;55.60
71994;DHT22;59861;50.268;8.648;2022-11-06T11:58:52;20.70;55.70
71994;DHT22;59861;50.268;8.648;2022-11-06T12:01:23;20.80;55.90
71994;DHT22;59861;50.268;8.648;2022-11-06T12:03:48;20.70;56.00
71994;DHT22;59861;50.268;8.648;2022-11-06T12:06:17;20.70;56.00
71994;DHT22;59861;50.268;8.648;2022-11-06T12:08:49;20.70;56.10
71994;DHT22;59861;50.268;8.648;2022-11-06T12:11:14;20.70;56.40
71994;DHT22;59861;50.268;8.648;2022-11-06T12:13:41;20.70;56.40
71994;DHT22;59861;50.268;8.648;2022-11-06T12:16:14;20.70;56.40
71994;DHT22;59861;50.268;8.648;2022-11-06T12:18:41;20.70;56.30
71994;DHT22;59861;50.268;8.648;2022-11-06T12:23:38;20.70;56.40
71994;DHT22;59861;50.268;8.648;2022-11-06T12:26:06;20.70;56.10
71994;DHT22;59861;50.268;8.648;2022-11-06T12:28:34;20.60;56.30
71994;DHT22;59861;50.268;8.648;2022-11-06T12:31:04;20.70;56.20
71994;DHT22;59861;50.268;8.648;2022-11-06T12:33:31;20.60;56.20
71994;DHT22;59861;50.268;8.648;2022-11-06T12:35:59;20.60;56.40
71994;DHT22;59861;50.268;8.648;2022-11-06T12:38:29;20.60;56.40
71994;DHT22;59861;50.268;8.648;2022-11-06T12:41:03;20.60;56.50
71994;DHT22;59861;50.268;8.648;2022-11-06T12:43:40;20.60;56.40
71994;DHT22;59861;50.268;8.648;2022-11-06T12:46:28;20.60;56.40
71994;DHT22;59861;50.268;8.648;2022-11-06T12:49:55;20.60;57.10
71994;DHT22;59861;50.268;8.648;2022-11-06T12:54:20;20.50;56.50
71994;DHT22;59861;50.268;8.648;2022-11-06T12:57:02;20.50;56.50
71994;DHT22;59861;50.268;8.648;2022-11-06T13:10:10;20.40;56.70
71994;DHT22;59861;50.268;8.648;2022-11-06T13:12:50;20.40;56.70
71994;DHT22;59861;50.268;8.648;2022-11-06T13:20:40;20.30;56.60
71994;DHT22;59861;50.268;8.648;2022-11-06T13:25:38;20.20;56.60
71994;DHT22;59861;50.268;8.648;2022-11-06T13:30:42;20.30;57.00
71994;DHT22;59861;50.268;8.648;2022-11-06T13:33:16;20.30;57.20
71994;DHT22;59861;50.268;8.648;2022-11-06T13:35:39;20.30;57.40
71994;DHT22;59861;50.268;8.648;2022-11-06T13:38:07;20.30;57.40
71994;DHT22;59861;50.268;8.648;2022-11-06T13:40:41;20.30;57.30
71994;DHT22;59861;50.268;8.648;2022-11-06T13:46:25;20.30;58.20
71994;DHT22;59861;50.268;8.648;2022-11-06T13:48:13;20.20;57.70
71994;DHT22;59861;50.268;8.648;2022-11-06T13:50:43;20.20;57.90
71994;DHT22;59861;50.268;8.648;2022-11-06T13:56:04;20.20;58.20
71994;DHT22;59861;50.268;8.648;2022-11-06T13:58:43;20.20;58.20
71994;DHT22;59861;50.268;8.648;2022-11-06T14:03:57;20.20;58.20
71994;DHT22;59861;50.268;8.648;2022-11-06T14:06:20;20.20;58.20
71994;DHT22;59861;50.268;8.648;2022-11-06T14:09:03;20.20;58.30
71994;DHT22;59861;50.268;8.648;2022-11-06T14:11:30;20.10;58.40
71994;DHT22;59861;50.268;8.648;2022-11-06T14:16:32;20.10;58.60
71994;DHT22;59861;50.268;8.648;2022-11-06T14:24:14;20.10;58.60
71994;DHT22;59861;50.268;8.648;2022-11-06T14:26:42;20.10;58.20
71994;DHT22;59861;50.268;8.648;2022-11-06T14:34:26;20.00;59.00
71994;DHT22;59861;50.268;8.648;2022-11-06T14:36:53;20.00;59.30
71994;DHT22;59861;50.268;8.648;2022-11-06T14:42:05;20.00;59.60
71994;DHT22;59861;50.268;8.648;2022-11-06T14:44:33;20.00;59.50
71994;DHT22;59861;50.268;8.648;2022-11-06T14:47:01;20.00;59.60
71994;DHT22;59861;50.268;8.648;2022-11-06T14:49:39;20.00;59.60
71994;DHT22;59861;50.268;8.648;2022-11-06T14:52:08;19.90;59.50
71994;DHT22;59861;50.268;8.648;2022-11-06T14:54:35;19.90;59.80
71994;DHT22;59861;50.268;8.648;2022-11-06T14:57:05;19.90;59.80
71994;DHT22;59861;50.268;8.648;2022-11-06T14:59:33;19.90;59.60
71994;DHT22;59861;50.268;8.648;2022-11-06T15:02:10;19.90;59.80
71994;DHT22;59861;50.268;8.648;2022-11-06T15:04:32;19.90;59.80
71994;DHT22;59861;50.268;8.648;2022-11-06T15:07:09;19.90;59.80
71994;DHT22;59861;50.268;8.648;2022-11-06T15:12:05;19.80;60.10
71994;DHT22;59861;50.268;8.648;2022-11-06T15:19:50;19.80;60.20
71994;DHT22;59861;50.268;8.648;2022-11-06T15:22:18;19.80;60.30
71994;DHT22;59861;50.268;8.648;2022-11-06T15:24:54;19.90;60.40
71994;DHT22;59861;50.268;8.648;2022-11-06T15:27:23;19.90;60.00
71994;DHT22;59861;50.268;8.648;2022-11-06T15:29:53;19.80;60.40
71994;DHT22;59861;50.268;8.648;2022-11-06T15:32:22;19.80;57.30
71994;DHT22;59861;50.268;8.648;2022-11-06T15:35:02;18.50;48.60
71994;DHT22;59861;50.268;8.648;2022-11-06T15:37:28;17.90;48.80
71994;DHT22;59861;50.268;8.648;2022-11-06T15:39:53;17.60;49.90
71994;DHT22;59861;50.268;8.648;2022-11-06T15:42:28;18.00;53.00
71994;DHT22;59861;50.268;8.648;2022-11-06T15:44:51;18.40;55.60
71994;DHT22;59861;50.268;8.648;2022-11-06T15:47:27;18.80;56.30
71994;DHT22;59861;50.268;8.648;2022-11-06T15:49:46;19.10;55.90
71994;DHT22;59861;50.268;8.648;2022-11-06T15:52:16;19.30;56.00
71994;DHT22;59861;50.268;8.648;2022-11-06T15:54:43;19.40;55.90
71994;DHT22;59861;50.268;8.648;2022-11-06T15:57:15;19.70;56.10
71994;DHT22;59861;50.268;8.648;2022-11-06T15:59:43;19.70;55.90
71994;DHT22;59861;50.268;8.648;2022-11-06T16:02:20;19.80;55.80
71994;DHT22;59861;50.268;8.648;2022-11-06T16:04:44;19.90;55.70
71994;DHT22;59861;50.268;8.648;2022-11-06T16:07:12;19.90;55.70
71994;DHT22;59861;50.268;8.648;2022-11-06T16:09:40;19.90;55.80
71994;DHT22;59861;50.268;8.648;2022-11-06T16:12:11;19.90;55.60
71994;DHT22;59861;50.268;8.648;2022-11-06T16:14:39;20.00;55.50
71994;DHT22;59861;50.268;8.648;2022-11-06T16:17:21;20.00;55.60
71994;DHT22;59861;50.268;8.648;2022-11-06T16:19:43;20.00;55.60
71994;DHT22;59861;50.268;8.648;2022-11-06T16:22:16;20.10;55.90
71994;DHT22;59861;50.268;8.648;2022-11-06T16:24:40;20.10;55.90
71994;DHT22;59861;50.268;8.648;2022-11-06T16:27:07;20.10;55.80
71994;DHT22;59861;50.268;8.648;2022-11-06T16:29:35;20.10;55.80
71994;DHT22;59861;50.268;8.648;2022-11-06T16:32:13;20.10;55.80
71994;DHT22;59861;50.268;8.648;2022-11-06T16:34:38;20.10;55.90
71994;DHT22;59861;50.268;8.648;2022-11-06T16:37:33;20.10;55.90
71994;DHT22;59861;50.268;8.648;2022-11-06T16:39:44;20.20;56.00
71994;DHT22;59861;50.268;8.648;2022-11-06T16:47:29;20.30;56.10
71994;DHT22;59861;50.268;8.648;2022-11-06T16:49:56;20.30;56.10
71994;DHT22;59861;50.268;8.648;2022-11-06T16:52:28;20.30;56.30
71994;DHT22;59861;50.268;8.648;2022-11-06T16:55:00;20.30;56.20
71994;DHT22;59861;50.268;8.648;2022-11-06T16:57:41;20.40;56.30
71994;DHT22;59861;50.268;8.648;2022-11-06T16:59:55;20.40;56.10
71994;DHT22;59861;50.268;8.648;2022-11-06T17:02:23;20.50;56.00
71994;DHT22;59861;50.268;8.648;2022-11-06T17:05:02;20.50;56.00
71994;DHT22;59861;50.268;8.648;2022-11-06T17:07:19;20.50;55.70
71994;DHT22;59861;50.268;8.648;2022-11-06T17:09:47;20.60;55.40
71994;DHT22;59861;50.268;8.648;2022-11-06T17:12:14;20.70;55.30
71994;DHT22;59861;50.268;8.648;2022-11-06T17:14:43;20.70;55.00
71994;DHT22;59861;50.268;8.648;2022-11-06T17:17:33;20.80;54.50
71994;DHT22;59861;50.268;8.648;2022-11-06T17:19:40;20.80;54.50
71994;DHT22;59861;50.268;8.648;2022-11-06T17:22:08;20.90;54.70
71994;DHT22;59861;50.268;8.648;2022-11-06T17:24:35;20.90;54.40
71994;DHT22;59861;50.268;8.648;2022-11-06T17:27:02;20.90;54.60
71994;DHT22;59861;50.268;8.648;2022-11-06T17:29:28;20.90;54.50
71994;DHT22;59861;50.268;8.648;2022-11-06T17:31:55;20.90;54.40
71994;DHT22;59861;50.268;8.648;2022-11-06T17:34:22;20.90;53.80